Time;durP1;ratioP1;P1;durP2;ratioP2;P2;SDS_P1;SDS_P2;PMS_P1;PMS_P2;Temp;Humidity;BMP_temperature;BMP_pressure;BME280_temperature;BME280_humidity;BME280_pressure;Samples;Min_cycle;Max_cycle;Signal;HPM_P1;HPM_P2
2022/04/22 00:00:41;;;;;;;6.43;5.78;;;;;;;;;;5094352;28;20232;-83
2022/04/22 00:03:09;;;;;;;7.32;6.65;;;;;;;;;;5094037;28;20246;-82
2022/04/22 00:05:37;;;;;;;8.55;7.00;;;;;;;;;;5094423;28;20243;-83
2022/04/22 00:08:05;;;;;;;6.75;6.03;;;;;;;;;;5094670;28;20200;-83
2022/04/22 00:10:33;;;;;;;8.32;7.30;;;;;;;;;;5093850;28;20199;-83
2022/04/22 00:13:01;;;;;;;7.65;6.88;;;;;;;;;;5093903;28;20214;-83
2022/04/22 00:15:30;;;;;;;6.97;6.38;;;;;;;;;;5093963;28;20703;-83
2022/04/22 00:17:57;;;;;;;6.35;5.75;;;;;;;;;;5093871;28;20207;-82
2022/04/22 00:20:24;;;;;;;6.70;6.13;;;;;;;;;;5094195;28;20261;-82
2022/04/22 00:22:52;;;;;;;6.88;5.65;;;;;;;;;;5093451;28;20211;-82
2022/04/22 00:25:19;;;;;;;6.70;6.00;;;;;;;;;;5093504;28;20219;-82
2022/04/22 00:27:46;;;;;;;5.65;5.15;;;;;;;;;;5093987;28;20211;-82
2022/04/22 00:30:14;;;;;;;5.18;4.68;;;;;;;;;;5094400;28;20203;-82
2022/04/22 00:32:42;;;;;;;4.55;4.15;;;;;;;;;;5093242;28;20203;-83
2022/04/22 00:35:10;;;;;;;5.28;4.78;;;;;;;;;;5094172;28;20207;-82
2022/04/22 00:37:38;;;;;;;4.72;4.30;;;;;;;;;;5093734;28;20204;-82
2022/04/22 00:40:07;;;;;;;7.30;6.60;;;;;;;;;;5094152;28;20230;-82
2022/04/22 00:42:36;;;;;;;6.22;5.63;;;;;;;;;;5092845;28;20207;-82
2022/04/22 00:45:05;;;;;;;6.28;5.53;;;;;;;;;;5092997;28;20196;-82
2022/04/22 00:47:33;;;;;;;5.55;5.05;;;;;;;;;;5093560;28;20258;-82
2022/04/22 00:50:01;;;;;;;6.25;5.72;;;;;;;;;;5093941;28;20226;-82
2022/04/22 00:52:29;;;;;;;5.03;4.53;;;;;;;;;;5093340;28;20647;-82
2022/04/22 00:54:56;;;;;;;5.38;4.88;;;;;;;;;;5093544;28;20208;-82
2022/04/22 00:57:23;;;;;;;5.95;5.35;;;;;;;;;;5093223;28;20265;-82
2022/04/22 00:59:52;;;;;;;7.13;6.50;;;;;;;;;;5094043;28;20277;-82
2022/04/22 01:02:19;;;;;;;6.32;5.65;;;;;;;;;;5092039;28;20211;-83
2022/04/22 01:10:18;;;;;;;7.13;6.43;;;;;;;;;;5097378;28;20223;-82
2022/04/22 01:12:45;;;;;;;6.05;5.55;;;;;;;;;;5097129;28;20249;-83
2022/04/22 01:15:13;;;;;;;5.90;5.40;;;;;;;;;;5097865;28;20208;-83
2022/04/22 01:17:40;;;;;;;5.63;5.13;;;;;;;;;;5097550;28;20246;-82
2022/04/22 01:20:08;;;;;;;5.07;4.68;;;;;;;;;;5097424;28;20224;-82
2022/04/22 01:22:36;;;;;;;5.03;4.53;;;;;;;;;;5096907;28;20196;-83
2022/04/22 01:25:06;;;;;;;6.30;5.70;;;;;;;;;;5096947;28;20250;-82
2022/04/22 01:27:33;;;;;;;6.93;5.65;;;;;;;;;;5096883;28;20216;-81
2022/04/22 01:30:06;;;;;;;5.45;4.95;;;;;;;;;;5097350;28;20200;-82
2022/04/22 01:32:33;;;;;;;6.95;6.32;;;;;;;;;;5096662;28;20246;-82
2022/04/22 01:35:00;;;;;;;8.07;7.28;;;;;;;;;;5097287;28;20681;-83
2022/04/22 01:37:27;;;;;;;7.78;6.75;;;;;;;;;;5096899;28;20216;-83
2022/04/22 01:39:56;;;;;;;5.68;5.18;;;;;;;;;;5096466;28;20235;-83
2022/04/22 01:42:23;;;;;;;7.28;6.57;;;;;;;;;;5096231;28;20200;-82
2022/04/22 01:44:51;;;;;;;6.50;5.88;;;;;;;;;;5097118;28;20204;-82
2022/04/22 01:47:19;;;;;;;4.30;3.90;;;;;;;;;;5096702;28;20765;-82
2022/04/22 01:49:46;;;;;;;7.32;5.85;;;;;;;;;;5096185;28;20196;-82
2022/04/22 01:52:13;;;;;;;7.35;6.22;;;;;;;;;;5095894;28;20262;-82
2022/04/22 01:54:41;;;;;;;7.78;6.95;;;;;;;;;;5096621;28;20205;-82
2022/04/22 01:57:09;;;;;;;6.82;6.20;;;;;;;;;;5096267;28;20231;-82
2022/04/22 01:59:37;;;;;;;6.22;5.18;;;;;;;;;;5096005;28;20200;-82
2022/04/22 02:02:05;;;;;;;6.13;5.53;;;;;;;;;;5096201;28;20261;-82
2022/04/22 02:04:32;;;;;;;6.25;5.63;;;;;;;;;;5096415;28;20676;-82
2022/04/22 02:07:00;;;;;;;5.20;4.80;;;;;;;;;;5096413;28;20227;-82
2022/04/22 02:09:28;;;;;;;5.28;4.63;;;;;;;;;;5096769;28;20228;-82
2022/04/22 02:11:55;;;;;;;5.78;5.28;;;;;;;;;;5095932;28;20211;-83
2022/04/22 02:14:24;;;;;;;5.05;4.65;;;;;;;;;;5096844;28;20368;-82
2022/04/22 02:16:52;;;;;;;5.03;4.53;;;;;;;;;;5096515;28;20223;-82
2022/04/22 02:19:19;;;;;;;4.78;4.35;;;;;;;;;;5095301;28;20664;-82
2022/04/22 02:21:46;;;;;;;4.82;4.25;;;;;;;;;;5095430;28;20865;-82
2022/04/22 02:24:14;;;;;;;4.82;4.43;;;;;;;;;;5095875;28;20668;-83
2022/04/22 02:29:27;;;;;;;4.32;3.92;;;;;;;;;;5095924;28;20202;-82
2022/04/22 02:31:54;;;;;;;4.88;4.47;;;;;;;;;;5095102;28;20203;-82
2022/04/22 02:34:22;;;;;;;5.82;5.25;;;;;;;;;;5096095;28;20211;-82
2022/04/22 02:36:50;;;;;;;5.70;5.22;;;;;;;;;;5095490;28;20216;-83
2022/04/22 02:39:18;;;;;;;7.95;7.18;;;;;;;;;;5095529;28;20207;-82
2022/04/22 02:47:17;;;;;;;5.70;5.20;;;;;;;;;;5095558;28;20226;-82
2022/04/22 02:49:44;;;;;;;6.18;5.57;;;;;;;;;;5095096;28;20204;-82
2022/04/22 02:52:12;;;;;;;5.10;4.60;;;;;;;;;;5094915;28;20195;-82
2022/04/22 02:54:39;;;;;;;4.88;4.47;;;;;;;;;;5095221;28;20204;-82
2022/04/22 02:57:07;;;;;;;5.25;4.80;;;;;;;;;;5095504;28;20224;-82
2022/04/22 02:59:37;;;;;;;4.57;4.18;;;;;;;;;;5095332;28;20203;-83
2022/04/22 03:02:05;;;;;;;5.90;5.40;;;;;;;;;;5094551;28;20699;-82
2022/04/22 03:04:32;;;;;;;4.53;4.13;;;;;;;;;;5094971;28;20566;-83
2022/04/22 03:06:59;;;;;;;6.75;6.15;;;;;;;;;;5094633;28;20225;-82
2022/04/22 03:09:27;;;;;;;5.13;4.70;;;;;;;;;;5094811;28;20212;-82
2022/04/22 03:11:54;;;;;;;8.80;7.95;;;;;;;;;;5093699;28;20204;-82
2022/04/22 03:14:21;;;;;;;7.55;6.85;;;;;;;;;;5094782;28;20200;-81
2022/04/22 03:16:50;;;;;;;7.05;6.35;;;;;;;;;;5094976;28;20242;-82
2022/04/22 03:19:17;;;;;;;7.57;6.22;;;;;;;;;;5093277;28;20220;-82
2022/04/22 03:21:44;;;;;;;6.93;6.22;;;;;;;;;;5094513;28;20265;-82
2022/04/22 03:24:12;;;;;;;5.72;5.22;;;;;;;;;;5095027;28;20201;-82
2022/04/22 03:26:39;;;;;;;6.03;5.25;;;;;;;;;;5095388;28;20243;-83
2022/04/22 03:29:06;;;;;;;5.00;4.47;;;;;;;;;;5094496;28;20296;-82
2022/04/22 03:31:34;;;;;;;5.28;4.78;;;;;;;;;;5092718;28;20196;-82
2022/04/22 03:34:02;;;;;;;4.97;4.45;;;;;;;;;;5093776;28;20204;-82
2022/04/22 03:36:29;;;;;;;7.40;6.70;;;;;;;;;;5094303;28;20220;-82
2022/04/22 03:38:57;;;;;;;5.65;5.15;;;;;;;;;;5094418;28;20599;-82
2022/04/22 03:41:24;;;;;;;4.95;4.50;;;;;;;;;;5094104;28;20246;-82
2022/04/22 03:43:51;;;;;;;5.80;5.20;;;;;;;;;;5093051;28;20213;-83
2022/04/22 03:46:18;;;;;;;7.15;5.30;;;;;;;;;;5094122;28;20231;-82
2022/04/22 03:48:46;;;;;;;5.28;4.78;;;;;;;;;;5093959;28;20694;-82
2022/04/22 03:51:15;;;;;;;5.15;4.65;;;;;;;;;;5094041;28;20192;-83
2022/04/22 03:53:42;;;;;;;4.95;4.45;;;;;;;;;;5093903;28;20625;-82
2022/04/22 03:58:55;;;;;;;4.95;4.50;;;;;;;;;;5094684;28;20273;-82
2022/04/22 04:01:22;;;;;;;5.22;4.78;;;;;;;;;;5093884;28;20220;-82
2022/04/22 04:03:49;;;;;;;6.45;5.88;;;;;;;;;;5092945;28;20201;-82
2022/04/22 04:06:18;;;;;;;6.57;5.70;;;;;;;;;;5093989;28;20212;-82
2022/04/22 04:15:57;;;;;;;4.65;4.28;;;;;;;;;;5093525;28;20208;-81
2022/04/22 04:17:03;;;;;;;4.60;4.20;;;;;;;;;;5094081;28;20223;-82
2022/04/22 04:25:01;;;;;;;7.00;6.07;;;;;;;;;;5093789;28;20207;-82
2022/04/22 04:27:29;;;;;;;6.45;5.88;;;;;;;;;;5093985;28;20207;-82
2022/04/22 04:29:56;;;;;;;5.72;5.13;;;;;;;;;;5094017;28;20245;-82
2022/04/22 04:32:24;;;;;;;5.80;5.30;;;;;;;;;;5093505;28;20192;-82
2022/04/22 04:34:51;;;;;;;5.22;4.72;;;;;;;;;;5093353;28;20250;-82
2022/04/22 04:37:20;;;;;;;5.75;5.25;;;;;;;;;;5093782;28;20224;-82
2022/04/22 04:39:48;;;;;;;6.30;5.70;;;;;;;;;;5093536;28;20200;-82
2022/04/22 04:42:15;;;;;;;6.25;4.78;;;;;;;;;;5092678;28;20277;-82
2022/04/22 04:44:42;;;;;;;4.00;3.60;;;;;;;;;;5094168;28;20250;-82
2022/04/22 04:47:10;;;;;;;4.63;4.22;;;;;;;;;;5093887;28;20217;-82
2022/04/22 04:49:37;;;;;;;3.88;3.58;;;;;;;;;;5093610;28;20200;-82
2022/04/22 04:52:06;;;;;;;4.78;4.30;;;;;;;;;;5093342;28;20199;-82
2022/04/22 04:54:35;;;;;;;5.93;5.32;;;;;;;;;;5093361;28;20204;-82
2022/04/22 04:57:02;;;;;;;4.78;4.38;;;;;;;;;;5093383;28;20247;-83
2022/04/22 04:59:29;;;;;;;6.13;5.55;;;;;;;;;;5093668;28;20698;-82
2022/04/22 05:01:57;;;;;;;5.55;5.05;;;;;;;;;;5092705;28;20231;-81
2022/04/22 05:04:24;;;;;;;4.88;4.53;;;;;;;;;;5093211;28;20246;-82
2022/04/22 05:06:51;;;;;;;6.80;6.13;;;;;;;;;;5092341;28;20621;-82
2022/04/22 05:09:18;;;;;;;5.53;5.03;;;;;;;;;;5099778;28;20600;-82
2022/04/22 05:11:47;;;;;;;5.75;5.30;;;;;;;;;;5091972;28;20570;-82
2022/04/22 05:14:14;;;;;;;5.60;5.10;;;;;;;;;;5092606;28;20215;-82
2022/04/22 05:16:42;;;;;;;5.75;5.15;;;;;;;;;;5092660;28;20224;-82
2022/04/22 05:19:09;;;;;;;6.47;5.88;;;;;;;;;;5093150;28;20680;-79
2022/04/22 05:21:37;;;;;;;5.47;4.95;;;;;;;;;;5092217;28;20204;-78
2022/04/22 05:24:04;;;;;;;7.43;6.72;;;;;;;;;;5092796;28;20207;-79
2022/04/22 05:26:32;;;;;;;6.40;5.70;;;;;;;;;;5092198;28;20597;-78
2022/04/22 05:29:01;;;;;;;5.82;5.32;;;;;;;;;;5092536;28;20200;-78
2022/04/22 05:34:13;;;;;;;6.40;5.80;;;;;;;;;;5092973;28;20204;-78
2022/04/22 05:36:40;;;;;;;7.07;6.43;;;;;;;;;;5092452;28;20223;-78
2022/04/22 05:39:09;;;;;;;5.85;5.32;;;;;;;;;;5092667;28;20205;-79
2022/04/22 05:41:36;;;;;;;5.82;4.78;;;;;;;;;;5092016;28;20200;-77
2022/04/22 05:44:05;;;;;;;4.47;4.00;;;;;;;;;;5091732;28;20306;-78
2022/04/22 05:46:33;;;;;;;5.30;4.80;;;;;;;;;;5092511;28;20221;-78
2022/04/22 05:49:00;;;;;;;5.30;4.85;;;;;;;;;;5092093;28;20269;-78
2022/04/22 05:51:27;;;;;;;5.68;5.18;;;;;;;;;;5091975;28;20200;-78
2022/04/22 05:53:55;;;;;;;5.47;4.97;;;;;;;;;;5093741;28;20207;-78
2022/04/22 05:56:23;;;;;;;7.32;6.55;;;;;;;;;;5095681;28;20227;-79
2022/04/22 05:58:50;;;;;;;6.68;6.03;;;;;;;;;;5096644;28;20245;-79
2022/04/22 06:01:19;;;;;;;5.57;5.07;;;;;;;;;;5096220;28;20211;-79
2022/04/22 06:03:46;;;;;;;6.97;6.07;;;;;;;;;;5095028;28;20270;-79
2022/04/22 06:06:13;;;;;;;6.88;6.18;;;;;;;;;;5095609;28;20651;-78
2022/04/22 06:11:25;;;;;;;7.80;6.18;;;;;;;;;;5095891;28;20227;-79
2022/04/22 06:13:53;;;;;;;8.00;6.50;;;;;;;;;;5076719;28;20669;-79
2022/04/22 06:16:21;;;;;;;6.18;5.57;;;;;;;;;;5075907;28;20220;-78
2022/04/22 06:18:48;;;;;;;5.95;5.45;;;;;;;;;;5076043;28;20196;-78
2022/04/22 06:21:16;;;;;;;5.97;5.38;;;;;;;;;;5076234;28;20246;-78
2022/04/22 06:23:43;;;;;;;6.57;5.97;;;;;;;;;;5074298;28;20282;-79
2022/04/22 06:26:10;;;;;;;6.93;6.25;;;;;;;;;;5080086;28;20247;-79
2022/04/22 06:28:38;;;;;;;7.35;6.65;;;;;;;;;;5095696;28;20732;-78
2022/04/22 06:31:05;;;;;;;5.90;5.40;;;;;;;;;;5094795;28;20565;-78
2022/04/22 06:33:35;;;;;;;5.38;4.97;;;;;;;;;;5094625;28;20254;-79
2022/04/22 06:36:05;;;;;;;5.93;5.32;;;;;;;;;;5096082;28;20248;-77
2022/04/22 06:38:32;;;;;;;6.60;6.00;;;;;;;;;;5096002;28;20214;-78
2022/04/22 06:46:31;;;;;;;6.57;5.93;;;;;;;;;;5095897;28;20238;-79
2022/04/22 06:49:01;;;;;;;6.03;5.30;;;;;;;;;;5095336;28;20208;-79
2022/04/22 06:51:29;;;;;;;7.15;6.55;;;;;;;;;;5095948;28;20212;-79
2022/04/22 06:53:57;;;;;;;8.65;7.85;;;;;;;;;;5095311;28;20200;-79
2022/04/22 06:56:27;;;;;;;8.93;8.02;;;;;;;;;;5095572;28;20236;-79
2022/04/22 06:58:55;;;;;;;8.30;7.50;;;;;;;;;;5095855;28;20201;-79
2022/04/22 07:01:24;;;;;;;8.40;7.53;;;;;;;;;;5095405;28;20200;-79
2022/04/22 07:03:52;;;;;;;8.95;8.05;;;;;;;;;;5094623;28;20226;-79
2022/04/22 07:06:21;;;;;;;9.55;8.65;;;;;;;;;;5094463;28;20224;-78
2022/04/22 07:08:49;;;;;;;8.90;8.10;;;;;;;;;;5094471;28;20665;-78
2022/04/22 07:11:24;;;;;;;7.55;6.85;;;;;;;;;;5093736;28;20196;-78
2022/04/22 07:13:52;;;;;;;7.95;7.15;;;;;;;;;;5093705;28;20558;-78
2022/04/22 07:16:20;;;;;;;9.20;8.10;;;;;;;;;;5094234;28;20225;-78
2022/04/22 07:18:47;;;;;;;9.50;8.60;;;;;;;;;;5094063;28;20200;-78
2022/04/22 07:21:16;;;;;;;10.05;8.98;;;;;;;;;;5094243;28;20200;-78
2022/04/22 07:23:45;;;;;;;9.20;8.40;;;;;;;;;;5075459;28;20225;-78
2022/04/22 07:26:13;;;;;;;8.35;7.55;;;;;;;;;;5078736;28;20231;-78
2022/04/22 07:28:41;;;;;;;8.25;7.45;;;;;;;;;;5093602;28;20208;-78
2022/04/22 07:31:09;;;;;;;11.60;10.50;;;;;;;;;;5093396;28;20672;-78
2022/04/22 07:33:37;;;;;;;7.80;7.10;;;;;;;;;;5093246;28;20269;-78
2022/04/22 07:36:04;;;;;;;7.68;6.88;;;;;;;;;;5093459;28;20765;-78
2022/04/22 07:38:32;;;;;;;7.95;7.18;;;;;;;;;;5093561;28;20227;-78
2022/04/22 07:41:01;;;;;;;8.00;7.30;;;;;;;;;;5093081;28;20205;-78
2022/04/22 07:48:59;;;;;;;8.98;8.07;;;;;;;;;;5093566;28;20257;-78
2022/04/22 07:51:27;;;;;;;9.20;8.30;;;;;;;;;;5093427;28;20204;-78
2022/04/22 07:53:55;;;;;;;8.60;7.80;;;;;;;;;;5093017;28;20204;-78
2022/04/22 07:56:23;;;;;;;8.93;8.05;;;;;;;;;;5093023;28;20324;-78
2022/04/22 07:58:51;;;;;;;7.03;6.32;;;;;;;;;;5093257;28;20204;-78
2022/04/22 08:01:18;;;;;;;9.15;8.25;;;;;;;;;;5093248;28;20245;-78
2022/04/22 08:03:46;;;;;;;9.20;8.40;;;;;;;;;;5092869;28;20235;-78
2022/04/22 08:06:13;;;;;;;9.77;8.85;;;;;;;;;;5093151;28;20231;-78
2022/04/22 08:08:40;;;;;;;10.45;9.45;;;;;;;;;;5092855;28;20201;-77
2022/04/22 08:11:08;;;;;;;9.82;8.90;;;;;;;;;;5092416;28;20201;-77
2022/04/22 08:13:36;;;;;;;9.15;8.27;;;;;;;;;;5092578;28;20719;-77
2022/04/22 08:16:04;;;;;;;10.02;9.02;;;;;;;;;;5092700;28;20223;-77
2022/04/22 08:18:32;;;;;;;9.77;8.77;;;;;;;;;;5092943;28;20203;-78
2022/04/22 08:20:59;;;;;;;9.23;8.30;;;;;;;;;;5092791;28;20240;-78
2022/04/22 08:23:26;;;;;;;10.82;9.85;;;;;;;;;;5092202;28;20208;-77
2022/04/22 08:25:53;;;;;;;12.18;10.95;;;;;;;;;;5092118;28;20228;-77
2022/04/22 08:28:21;;;;;;;10.23;9.13;;;;;;;;;;5092690;28;20204;-77
2022/04/22 08:30:49;;;;;;;8.82;8.02;;;;;;;;;;5092206;28;20250;-78
2022/04/22 08:33:17;;;;;;;11.10;10.10;;;;;;;;;;5091391;28;20215;-77
2022/04/22 08:35:44;;;;;;;9.63;8.73;;;;;;;;;;5092502;28;20258;-77
2022/04/22 08:38:11;;;;;;;10.13;9.23;;;;;;;;;;5092057;28;20200;-77
2022/04/22 08:40:39;;;;;;;9.90;9.00;;;;;;;;;;5134305;22;20227;-80
2022/04/22 08:43:07;;;;;;;10.10;9.25;;;;;;;;;;5104312;28;20211;-78
2022/04/22 08:45:35;;;;;;;9.00;8.10;;;;;;;;;;5112810;28;20284;-78
2022/04/22 08:50:54;;;;;;;6.22;5.72;;;;;;;;;;5116932;28;20222;-78
2022/04/22 08:53:25;;;;;;;6.55;5.95;;;;;;;;;;5115196;28;20202;-80
2022/04/22 08:55:56;;;;;;;5.85;5.35;;;;;;;;;;5119265;28;20218;-79
2022/04/22 08:58:26;;;;;;;7.38;6.68;;;;;;;;;;5118724;28;20192;-79
2022/04/22 09:00:54;;;;;;;8.23;7.53;;;;;;;;;;5117243;28;20727;-80
2022/04/22 09:03:23;;;;;;;7.70;7.00;;;;;;;;;;5114998;28;20257;-77
2022/04/22 09:05:50;;;;;;;5.72;5.13;;;;;;;;;;5116522;28;20226;-79
2022/04/22 09:08:17;;;;;;;6.68;6.13;;;;;;;;;;5113829;28;20210;-77
2022/04/22 09:10:45;;;;;;;6.53;5.93;;;;;;;;;;5114623;28;20223;-78
2022/04/22 09:13:25;;;;;;;6.00;5.43;;;;;;;;;;5077198;28;20231;-79
2022/04/22 09:15:52;;;;;;;6.65;5.95;;;;;;;;;;5074832;28;20539;-79
2022/04/22 09:18:22;;;;;;;7.68;6.95;;;;;;;;;;5073665;28;20229;-78
2022/04/22 09:20:50;;;;;;;6.70;6.10;;;;;;;;;;5074102;28;20224;-79
2022/04/22 09:23:32;;;;;;;7.63;6.93;;;;;;;;;;5073024;28;20255;-78
2022/04/22 09:25:59;;;;;;;6.95;6.35;;;;;;;;;;5074027;28;20252;-79
2022/04/22 09:28:27;;;;;;;6.82;5.88;;;;;;;;;;5077586;28;20250;-79
2022/04/22 09:30:59;;;;;;;6.05;5.55;;;;;;;;;;5078177;28;20221;-78
2022/04/22 09:33:26;;;;;;;6.55;6.00;;;;;;;;;;5077819;28;20208;-78
2022/04/22 09:44:25;;;;;;;6.65;5.88;;;;;;;;;;5079466;28;20306;-78
2022/04/22 09:47:11;;;;;;;8.02;7.22;;;;;;;;;;5076827;28;20237;-80
2022/04/22 09:49:40;;;;;;;8.18;6.32;;;;;;;;;;5077665;28;20227;-78
2022/04/22 09:52:09;;;;;;;7.70;7.00;;;;;;;;;;5077309;28;20247;-78
2022/04/22 09:54:38;;;;;;;8.05;7.25;;;;;;;;;;5077832;28;20193;-78
2022/04/22 09:57:06;;;;;;;6.30;5.70;;;;;;;;;;5077863;28;20265;-78
2022/04/22 09:59:35;;;;;;;6.60;6.00;;;;;;;;;;5077704;28;20197;-78
2022/04/22 10:02:04;;;;;;;7.40;6.63;;;;;;;;;;5075691;28;20197;-79
2022/04/22 10:04:33;;;;;;;7.47;6.78;;;;;;;;;;5076293;28;20260;-78
2022/04/22 10:07:03;;;;;;;5.82;5.38;;;;;;;;;;5079643;28;20665;-79
2022/04/22 10:09:31;;;;;;;4.75;4.35;;;;;;;;;;5080193;28;20205;-78
2022/04/22 10:11:59;;;;;;;6.07;5.57;;;;;;;;;;5079881;28;20259;-79
2022/04/22 10:14:38;;;;;;;6.63;6.05;;;;;;;;;;5080372;28;20193;-77
2022/04/22 10:17:06;;;;;;;5.93;5.43;;;;;;;;;;5080507;28;20207;-78
2022/04/22 10:19:34;;;;;;;5.95;5.43;;;;;;;;;;5077663;28;20204;-78
2022/04/22 10:22:03;;;;;;;6.25;5.65;;;;;;;;;;5078603;28;20677;-78
2022/04/22 10:24:32;;;;;;;7.57;6.22;;;;;;;;;;5078495;28;20680;-78
2022/04/22 10:27:00;;;;;;;5.57;5.07;;;;;;;;;;5077210;28;20352;-78
2022/04/22 10:29:29;;;;;;;5.15;4.75;;;;;;;;;;5076835;28;20733;-78
2022/04/22 10:31:57;;;;;;;7.60;6.90;;;;;;;;;;5075919;28;20205;-77
2022/04/22 10:34:39;;;;;;;8.05;7.25;;;;;;;;;;5076016;28;20252;-77
2022/04/22 10:37:06;;;;;;;7.38;6.72;;;;;;;;;;5075383;28;20350;-77
2022/04/22 10:39:36;;;;;;;8.77;7.97;;;;;;;;;;5074598;28;20251;-77
2022/04/22 10:42:03;;;;;;;7.35;6.65;;;;;;;;;;5074212;28;20205;-77
2022/04/22 10:47:15;;;;;;;6.10;5.53;;;;;;;;;;5075907;28;20273;-77
2022/04/22 10:49:44;;;;;;;5.85;5.25;;;;;;;;;;5076170;28;20213;-79
2022/04/22 10:52:14;;;;;;;9.30;8.50;;;;;;;;;;5074268;28;20240;-79
2022/04/22 10:55:15;;;;;;;6.97;6.38;;;;;;;;;;5075803;28;20205;-78
2022/04/22 10:57:44;;;;;;;6.40;5.80;;;;;;;;;;5074762;28;20214;-79
2022/04/22 11:00:29;;;;;;;8.30;7.60;;;;;;;;;;5075008;28;20224;-78
2022/04/22 11:03:14;;;;;;;9.57;8.70;;;;;;;;;;5074694;28;20258;-78
2022/04/22 11:05:47;;;;;;;7.65;6.95;;;;;;;;;;5075222;28;20625;-79
2022/04/22 11:08:29;;;;;;;8.27;7.30;;;;;;;;;;5091725;28;20208;-79
2022/04/22 11:11:13;;;;;;;10.02;9.13;;;;;;;;;;5094927;28;20220;-78
2022/04/22 11:13:50;;;;;;;8.00;7.30;;;;;;;;;;5102521;28;20192;-79
2022/04/22 11:16:29;;;;;;;7.03;6.32;;;;;;;;;;5094735;28;20287;-79
2022/04/22 11:19:36;;;;;;;8.93;8.15;;;;;;;;;;5094626;28;20294;-78
2022/04/22 11:22:07;;;;;;;9.90;8.93;;;;;;;;;;5086062;28;20287;-79
2022/04/22 11:24:34;;;;;;;8.10;7.30;;;;;;;;;;5094544;28;20207;-79
2022/04/22 11:27:11;;;;;;;8.82;8.13;;;;;;;;;;5094727;28;20231;-79
2022/04/22 11:29:39;;;;;;;7.35;6.70;;;;;;;;;;5095172;28;20253;-80
2022/04/22 11:32:14;;;;;;;7.75;7.07;;;;;;;;;;5093524;28;20767;-79
2022/04/22 11:35:13;;;;;;;9.00;8.13;;;;;;;;;;5093627;28;20211;-79
2022/04/22 11:37:40;;;;;;;9.13;8.18;;;;;;;;;;5093644;28;20782;-77
2022/04/22 11:40:09;;;;;;;8.18;7.47;;;;;;;;;;5093365;28;20232;-79
2022/04/22 11:42:45;;;;;;;6.43;5.85;;;;;;;;;;5100855;28;20205;-78
2022/04/22 11:45:15;;;;;;;7.53;6.93;;;;;;;;;;5107325;28;20584;-78
2022/04/22 11:47:43;;;;;;;7.00;6.40;;;;;;;;;;5083405;28;20517;-78
2022/04/22 11:50:17;;;;;;;5.47;5.03;;;;;;;;;;5072704;28;20785;-80
2022/04/22 11:52:45;;;;;;;4.53;4.20;;;;;;;;;;5072546;28;20773;-79
2022/04/22 11:55:12;;;;;;;6.18;5.60;;;;;;;;;;5073698;28;20251;-79
2022/04/22 11:57:41;;;;;;;8.00;7.40;;;;;;;;;;5073099;28;20200;-79
2022/04/22 12:05:43;;;;;;;7.78;7.07;;;;;;;;;;5093705;28;20245;-78
2022/04/22 12:08:13;;;;;;;10.75;9.75;;;;;;;;;;5093761;28;20207;-80
2022/04/22 12:10:43;;;;;;;7.50;6.90;;;;;;;;;;5094161;28;20262;-79
2022/04/22 12:13:13;;;;;;;7.78;7.07;;;;;;;;;;5098971;28;20668;-78
2022/04/22 12:15:43;;;;;;;7.90;7.25;;;;;;;;;;5073118;28;20724;-79
2022/04/22 12:18:32;;;;;;;7.45;6.82;;;;;;;;;;5074535;28;20201;-78
2022/04/22 12:20:59;;;;;;;8.25;7.45;;;;;;;;;;5075041;28;20224;-78
2022/04/22 12:23:35;;;;;;;6.25;5.65;;;;;;;;;;5072296;28;20258;-78
2022/04/22 12:26:02;;;;;;;7.72;7.03;;;;;;;;;;5073172;28;20221;-79
2022/04/22 12:28:31;;;;;;;9.43;8.63;;;;;;;;;;5074309;28;20685;-79
2022/04/22 12:30:58;;;;;;;8.63;7.85;;;;;;;;;;5073550;28;20588;-78
2022/04/22 12:33:26;;;;;;;9.02;8.20;;;;;;;;;;5072915;28;20212;-79
2022/04/22 12:36:07;;;;;;;7.35;6.78;;;;;;;;;;5074605;28;20212;-79
2022/04/22 12:38:37;;;;;;;7.57;6.70;;;;;;;;;;5072778;28;20201;-78
2022/04/22 12:41:05;;;;;;;6.68;6.05;;;;;;;;;;5072670;28;20248;-79
2022/04/22 12:43:34;;;;;;;7.80;7.05;;;;;;;;;;5070548;28;20201;-81
2022/04/22 12:52:14;;;;;;;6.20;5.60;;;;;;;;;;5053171;28;20196;-79
2022/04/22 12:54:45;;;;;;;5.03;4.50;;;;;;;;;;5074693;28;20224;-79
2022/04/22 12:57:17;;;;;;;5.18;4.78;;;;;;;;;;5075519;28;20181;-81
2022/04/22 12:59:49;;;;;;;6.35;5.75;;;;;;;;;;5074458;28;20291;-81
2022/04/22 13:02:18;;;;;;;6.90;6.20;;;;;;;;;;5073383;28;20236;-81
2022/04/22 13:04:54;;;;;;;6.72;6.13;;;;;;;;;;5073928;28;20208;-81
2022/04/22 13:07:22;;;;;;;9.57;8.77;;;;;;;;;;5073558;28;20718;-80
2022/04/22 13:09:49;;;;;;;8.35;7.50;;;;;;;;;;5073079;28;20252;-81
2022/04/22 13:12:17;;;;;;;6.95;6.32;;;;;;;;;;5072122;28;20205;-81
2022/04/22 13:14:46;;;;;;;6.95;6.25;;;;;;;;;;5073266;28;20258;-80
2022/04/22 13:17:21;;;;;;;6.20;5.70;;;;;;;;;;5072710;28;20243;-80
2022/04/22 13:19:48;;;;;;;6.65;6.05;;;;;;;;;;5072945;28;20221;-80
2022/04/22 13:22:16;;;;;;;7.82;7.13;;;;;;;;;;5072955;28;20695;-80
2022/04/22 13:24:45;;;;;;;7.47;6.78;;;;;;;;;;5072058;28;20228;-80
2022/04/22 13:27:15;;;;;;;7.80;7.05;;;;;;;;;;5072511;28;20229;-80
2022/04/22 13:29:44;;;;;;;7.18;6.57;;;;;;;;;;5073111;28;20211;-81
2022/04/22 13:32:11;;;;;;;7.07;6.38;;;;;;;;;;5072059;28;20571;-81
2022/04/22 13:34:39;;;;;;;6.43;5.82;;;;;;;;;;5072479;28;20205;-80
2022/04/22 13:37:07;;;;;;;5.35;4.93;;;;;;;;;;5074012;28;20280;-80
2022/04/22 13:39:35;;;;;;;5.03;4.63;;;;;;;;;;5074363;28;20201;-79
2022/04/22 13:42:03;;;;;;;5.38;4.97;;;;;;;;;;5073754;28;20217;-79
2022/04/22 13:52:47;;;;;;;4.82;4.43;;;;;;;;;;5073244;28;20298;-78
2022/04/22 13:55:14;;;;;;;6.30;5.75;;;;;;;;;;5074780;28;20242;-79
2022/04/22 13:57:41;;;;;;;5.93;5.43;;;;;;;;;;5072463;28;20205;-79
2022/04/22 14:00:10;;;;;;;8.27;7.57;;;;;;;;;;5074136;28;20221;-80
2022/04/22 14:02:39;;;;;;;8.27;7.57;;;;;;;;;;5075300;28;20201;-80
2022/04/22 14:05:08;;;;;;;6.80;6.20;;;;;;;;;;5094122;28;20216;-81
2022/04/22 14:07:35;;;;;;;7.10;6.47;;;;;;;;;;5093020;28;20224;-81
2022/04/22 14:10:03;;;;;;;9.50;8.45;;;;;;;;;;5078202;28;20774;-80
2022/04/22 14:12:30;;;;;;;7.13;6.43;;;;;;;;;;5077827;28;20649;-79
2022/04/22 14:14:58;;;;;;;6.55;5.95;;;;;;;;;;5099727;28;20871;-79
2022/04/22 14:17:25;;;;;;;7.00;6.30;;;;;;;;;;5095529;28;20204;-78
2022/04/22 14:19:54;;;;;;;4.90;4.47;;;;;;;;;;5090962;28;20217;-78
2022/04/22 14:22:21;;;;;;;5.25;4.85;;;;;;;;;;5075093;28;20250;-79
2022/04/22 14:24:48;;;;;;;4.47;4.07;;;;;;;;;;5076756;28;20209;-77
2022/04/22 14:27:16;;;;;;;4.22;3.92;;;;;;;;;;5075635;28;20244;-78
2022/04/22 14:29:44;;;;;;;5.68;5.18;;;;;;;;;;5076285;28;20212;-78
2022/04/22 14:32:12;;;;;;;5.07;4.68;;;;;;;;;;5075949;28;20200;-78
2022/04/22 14:34:39;;;;;;;4.85;4.45;;;;;;;;;;5076031;28;20262;-77
2022/04/22 14:37:08;;;;;;;4.57;4.18;;;;;;;;;;5075914;28;20209;-78
2022/04/22 14:39:35;;;;;;;4.25;3.95;;;;;;;;;;5075529;28;20224;-78
2022/04/22 14:44:31;;;;;;;6.28;5.55;;;;;;;;;;5053160;28;20213;-79
2022/04/22 14:46:59;;;;;;;5.60;5.15;;;;;;;;;;5055332;28;20201;-79
2022/04/22 14:49:26;;;;;;;4.00;3.70;;;;;;;;;;5055301;28;20205;-79
2022/04/22 14:51:54;;;;;;;4.03;3.72;;;;;;;;;;5054601;28;20209;-79
2022/04/22 14:54:22;;;;;;;3.50;3.20;;;;;;;;;;5055528;28;20570;-80
2022/04/22 14:56:50;;;;;;;4.63;4.25;;;;;;;;;;5054976;28;20201;-80
2022/04/22 14:59:19;;;;;;;6.95;3.75;;;;;;;;;;5053975;28;20193;-79
2022/04/22 15:01:46;;;;;;;5.22;4.35;;;;;;;;;;5054697;28;20209;-80
2022/04/22 15:04:14;;;;;;;5.55;5.03;;;;;;;;;;5055022;28;20221;-78
2022/04/22 15:06:41;;;;;;;5.35;4.88;;;;;;;;;;5055157;28;20259;-78
2022/04/22 15:09:08;;;;;;;4.93;4.53;;;;;;;;;;5054034;28;20222;-78
2022/04/22 15:11:37;;;;;;;5.47;4.97;;;;;;;;;;5051264;28;20217;-78
2022/04/22 15:14:05;;;;;;;5.53;5.03;;;;;;;;;;5042455;28;20639;-78
2022/04/22 15:16:32;;;;;;;4.25;3.95;;;;;;;;;;5034126;28;20206;-78
2022/04/22 15:24:29;;;;;;;4.13;3.83;;;;;;;;;;5034136;28;20723;-78
2022/04/22 15:26:58;;;;;;;4.40;4.00;;;;;;;;;;5033965;28;20215;-78
2022/04/22 15:29:26;;;;;;;4.55;4.15;;;;;;;;;;5034506;28;20230;-79
2022/04/22 15:31:54;;;;;;;4.93;4.53;;;;;;;;;;5034073;28;20281;-79
2022/04/22 15:34:21;;;;;;;5.50;5.10;;;;;;;;;;5034334;28;20226;-78
2022/04/22 15:36:49;;;;;;;5.68;5.18;;;;;;;;;;5034474;28;20206;-77
2022/04/22 15:39:19;;;;;;;3.85;3.38;;;;;;;;;;5034817;28;20213;-78
2022/04/22 15:41:47;;;;;;;4.93;4.20;;;;;;;;;;5041523;28;20209;-78
2022/04/22 15:44:27;;;;;;;4.82;4.43;;;;;;;;;;5072381;28;20609;-78
2022/04/22 15:46:54;;;;;;;3.92;3.63;;;;;;;;;;5074258;28;20200;-78
2022/04/22 15:49:22;;;;;;;4.15;3.80;;;;;;;;;;5073518;28;20225;-79
2022/04/22 15:51:49;;;;;;;4.50;4.20;;;;;;;;;;5072891;28;20212;-78
2022/04/22 15:54:16;;;;;;;5.15;4.75;;;;;;;;;;5073883;28;20221;-78
2022/04/22 15:56:44;;;;;;;4.75;4.35;;;;;;;;;;5074008;28;20258;-78
2022/04/22 15:59:11;;;;;;;4.10;3.80;;;;;;;;;;5073735;28;20204;-78
2022/04/22 16:01:43;;;;;;;3.75;3.45;;;;;;;;;;5073596;28;20237;-78
2022/04/22 16:04:11;;;;;;;4.20;3.80;;;;;;;;;;5073578;28;20225;-78
2022/04/22 16:06:41;;;;;;;4.47;4.10;;;;;;;;;;5074055;28;20201;-78
2022/04/22 16:09:08;;;;;;;3.47;3.05;;;;;;;;;;5073300;28;20221;-79
2022/04/22 16:17:07;;;;;;;7.93;4.50;;;;;;;;;;5074205;28;20680;-78
2022/04/22 16:19:34;;;;;;;4.97;4.32;;;;;;;;;;5074223;28;20196;-78
2022/04/22 16:22:02;;;;;;;4.57;4.18;;;;;;;;;;5071343;28;20204;-78
2022/04/22 16:24:30;;;;;;;5.53;5.03;;;;;;;;;;5074185;28;20203;-79